Time;durP1;ratioP1;P1;durP2;ratioP2;P2;SDS_P1;SDS_P2;PMS_P1;PMS_P2;Temp;Humidity;BMP_temperature;BMP_pressure;BME280_temperature;BME280_humidity;BME280_pressure;Samples;Min_cycle;Max_cycle;Signal;HPM_P1;HPM_P2
2023/02/27 11:49:39;;;;;;;0.40;0.40;;;-2.10;94.70;;;;;;5111526;27;20553;-75
2023/02/27 11:52:19;;;;;;;0.30;0.30;;;-1.80;93.90;;;;;;5111481;28;20188;-72
2023/02/27 11:54:54;;;;;;;0.40;0.40;;;-1.10;92.70;;;;;;5111218;27;20183;-74
2023/02/27 11:57:38;;;;;;;0.30;0.30;;;-0.60;92.00;;;;;;5111447;28;20164;-72
2023/02/27 12:00:15;;;;;;;0.40;0.40;;;-0.30;91.10;;;;;;5110618;28;20534;-73
2023/02/27 12:03:01;;;;;;;0.80;0.68;;;-0.70;90.40;;;;;;5111239;28;20192;-75
2023/02/27 12:05:46;;;;;;;0.30;0.30;;;-0.40;91.90;;;;;;5110831;28;20549;-75
2023/02/27 12:08:18;;;;;;;0.32;0.32;;;0.00;90.70;;;;;;5110856;28;20211;-74
2023/02/27 12:11:03;;;;;;;0.30;0.30;;;0.00;90.20;;;;;;5110714;28;20194;-73
2023/02/27 12:13:37;;;;;;;0.40;0.40;;;0.10;88.70;;;;;;5110153;28;20246;-73
2023/02/27 12:16:18;;;;;;;0.35;0.35;;;0.30;87.90;;;;;;5110720;28;20198;-71
2023/02/27 12:18:58;;;;;;;0.38;0.38;;;0.30;87.90;;;;;;5109753;28;20185;-70
2023/02/27 12:21:31;;;;;;;0.30;0.30;;;0.20;86.00;;;;;;5108761;28;20267;-72
2023/02/27 12:24:08;;;;;;;0.30;0.30;;;-0.30;87.20;;;;;;5109054;28;20170;-73
2023/02/27 12:26:51;;;;;;;0.40;0.40;;;0.00;87.80;;;;;;5110156;28;20240;-70
2023/02/27 12:29:34;;;;;;;0.32;0.32;;;0.40;86.70;;;;;;5110240;28;20206;-72
2023/02/27 12:32:12;;;;;;;0.38;0.38;;;0.50;84.80;;;;;;5110678;28;20177;-70
2023/02/27 12:34:45;;;;;;;0.40;0.40;;;0.60;86.10;;;;;;5110508;28;20248;-70
2023/02/27 12:37:14;;;;;;;0.88;0.88;;;0.30;83.80;;;;;;5110351;28;20181;-70
2023/02/27 12:39:43;;;;;;;0.40;0.40;;;0.40;84.20;;;;;;5109975;28;20187;-71
2023/02/27 12:42:40;;;;;;;0.40;0.40;;;0.30;83.40;;;;;;5110220;28;20535;-70
2023/02/27 12:45:25;;;;;;;1.35;0.88;;;0.10;85.40;;;;;;5108992;28;20708;-71
2023/02/27 12:47:59;;;;;;;0.40;0.40;;;0.20;84.10;;;;;;5109848;28;20276;-70
2023/02/27 12:50:28;;;;;;;0.55;0.55;;;0.20;84.50;;;;;;5110143;28;20163;-70
2023/02/27 12:53:16;;;;;;;0.40;0.40;;;0.20;85.40;;;;;;5110034;28;20201;-70
2023/02/27 12:55:48;;;;;;;2.10;0.95;;;-0.10;83.80;;;;;;5110239;28;20253;-71
2023/02/27 12:58:51;;;;;;;0.70;0.70;;;-0.10;84.10;;;;;;5109978;28;20200;-71
2023/02/27 13:01:58;;;;;;;0.30;0.30;;;-0.40;85.10;;;;;;5096629;28;20204;-70
2023/02/27 13:04:42;;;;;;;0.80;0.80;;;-0.20;86.20;;;;;;5072545;28;20556;-70
2023/02/27 13:07:10;;;;;;;0.40;0.40;;;-0.20;85.60;;;;;;5096037;28;20171;-71
2023/02/27 13:09:54;;;;;;;0.65;0.65;;;-0.40;85.00;;;;;;5095864;28;20189;-70
2023/02/27 13:12:32;;;;;;;0.40;0.40;;;-0.40;86.40;;;;;;5096243;28;20271;-70
2023/02/27 13:15:01;;;;;;;0.50;0.50;;;-0.50;85.30;;;;;;5096225;28;20625;-71
2023/02/27 13:17:38;;;;;;;0.30;0.30;;;-0.40;86.90;;;;;;5096077;28;20169;-71
2023/02/27 13:20:29;;;;;;;0.60;0.60;;;-0.60;85.90;;;;;;5095850;28;20178;-71
2023/02/27 13:23:24;;;;;;;0.40;0.40;;;-0.40;87.00;;;;;;5095860;28;20174;-71
2023/02/27 13:25:52;;;;;;;1.25;0.70;;;-0.50;85.00;;;;;;5040836;28;20256;-71
2023/02/27 13:28:22;;;;;;;0.40;0.40;;;-0.50;85.40;;;;;;5095698;28;20674;-71
2023/02/27 13:31:08;;;;;;;0.80;0.80;;;-0.20;86.40;;;;;;5095686;28;20174;-71
2023/02/27 13:33:59;;;;;;;0.40;0.40;;;0.10;84.70;;;;;;5096079;28;20572;-71
2023/02/27 13:36:55;;;;;;;0.60;0.60;;;0.10;83.70;;;;;;5095638;28;20165;-71
2023/02/27 13:39:48;;;;;;;0.65;0.65;;;0.00;83.40;;;;;;5094313;28;20202;-71
2023/02/27 13:42:26;;;;;;;1.90;1.42;;;0.10;84.70;;;;;;5095692;28;20549;-71
2023/02/27 13:44:53;;;;;;;1.05;1.00;;;0.40;85.20;;;;;;5095370;28;20162;-71
2023/02/27 13:47:40;;;;;;;0.40;0.40;;;0.00;83.00;;;;;;5095366;28;20654;-71
2023/02/27 13:50:20;;;;;;;0.40;0.40;;;-0.10;82.80;;;;;;5095135;28;20178;-71
2023/02/27 13:52:46;;;;;;;3.15;1.65;;;0.10;84.10;;;;;;5095275;28;20176;-71
2023/02/27 13:55:27;;;;;;;0.60;0.60;;;0.20;85.10;;;;;;5095293;28;20195;-71
2023/02/27 13:58:00;;;;;;;2.45;0.95;;;0.10;83.10;;;;;;5095135;28;20186;-71
2023/02/27 14:00:37;;;;;;;0.38;0.38;;;-0.10;84.70;;;;;;5095050;28;20225;-71
2023/02/27 14:03:30;;;;;;;1.15;0.98;;;0.00;85.20;;;;;;5093830;28;20182;-71
2023/02/27 14:06:01;;;;;;;0.30;0.30;;;-0.10;85.10;;;;;;5092992;28;20203;-71
2023/02/27 14:08:32;;;;;;;0.32;0.32;;;-0.10;83.60;;;;;;5093738;28;20562;-71
2023/02/27 14:11:01;;;;;;;0.57;0.57;;;-0.20;84.70;;;;;;5093760;28;20159;-71
2023/02/27 14:13:45;;;;;;;0.50;0.50;;;-0.10;85.90;;;;;;5094689;28;20166;-71
2023/02/27 14:16:32;;;;;;;0.40;0.40;;;0.00;84.90;;;;;;5095031;28;20197;-71
2023/02/27 14:19:00;;;;;;;0.40;0.40;;;0.20;83.90;;;;;;5094419;28;20203;-71
2023/02/27 14:21:55;;;;;;;0.30;0.30;;;0.50;82.60;;;;;;5094868;28;20210;-71
2023/02/27 14:24:35;;;;;;;1.63;0.80;;;0.40;81.30;;;;;;5094946;28;20167;-71
2023/02/27 14:27:03;;;;;;;0.93;0.70;;;0.40;83.40;;;;;;5094520;28;20557;-71
2023/02/27 14:29:32;;;;;;;0.40;0.40;;;0.60;82.60;;;;;;5094281;28;20179;-72
2023/02/27 14:32:02;;;;;;;0.40;0.40;;;0.80;82.20;;;;;;5094525;28;20181;-71
2023/02/27 14:34:28;;;;;;;2.67;1.58;;;0.70;80.70;;;;;;5093266;28;20690;-71
2023/02/27 14:36:58;;;;;;;2.05;1.02;;;0.70;80.60;;;;;;5094636;28;20551;-71
2023/02/27 14:39:33;;;;;;;3.60;1.58;;;0.60;80.90;;;;;;5094050;28;20194;-71
2023/02/27 14:42:06;;;;;;;0.40;0.40;;;0.40;80.90;;;;;;5094434;28;20166;-71
2023/02/27 14:44:44;;;;;;;2.72;2.53;;;0.40;80.60;;;;;;5094536;28;20167;-71
2023/02/27 14:47:30;;;;;;;0.30;0.30;;;0.40;82.00;;;;;;5094023;28;20175;-71
2023/02/27 14:49:56;;;;;;;0.50;0.50;;;0.40;82.10;;;;;;5094145;28;20173;-71
2023/02/27 14:52:25;;;;;;;0.77;0.77;;;0.30;80.60;;;;;;5094319;28;20212;-71
2023/02/27 14:54:52;;;;;;;0.50;0.50;;;0.40;82.70;;;;;;5094326;28;20646;-72
2023/02/27 14:57:23;;;;;;;1.10;1.10;;;0.60;82.90;;;;;;5094108;28;20266;-71
2023/02/27 14:59:55;;;;;;;0.60;0.60;;;0.70;82.20;;;;;;5093707;28;20223;-70
2023/02/27 15:02:24;;;;;;;0.60;0.60;;;0.40;81.20;;;;;;5094169;28;20182;-70
2023/02/27 15:05:12;;;;;;;0.40;0.40;;;0.50;81.00;;;;;;5094126;28;20167;-70
2023/02/27 15:07:39;;;;;;;0.40;0.40;;;0.70;82.00;;;;;;5093789;28;20199;-70
2023/02/27 15:10:07;;;;;;;0.40;0.40;;;0.50;80.60;;;;;;5093715;28;20171;-70
2023/02/27 15:12:38;;;;;;;0.30;0.30;;;0.50;80.50;;;;;;5093870;28;20193;-70
2023/02/27 15:15:06;;;;;;;0.45;0.45;;;0.40;80.80;;;;;;5092662;28;20175;-70
2023/02/27 15:17:37;;;;;;;6.93;0.88;;;0.40;80.90;;;;;;5093605;28;20592;-70
2023/02/27 15:20:21;;;;;;;0.85;0.85;;;0.20;81.40;;;;;;5093520;28;20172;-70
2023/02/27 15:22:46;;;;;;;0.77;0.77;;;0.30;81.20;;;;;;5093713;28;20186;-70
2023/02/27 15:25:44;;;;;;;0.40;0.40;;;0.50;81.00;;;;;;5093789;28;20169;-70
2023/02/27 15:28:37;;;;;;;0.55;0.55;;;0.70;82.00;;;;;;5059929;28;20229;-70
2023/02/27 15:31:03;;;;;;;0.40;0.40;;;0.60;79.80;;;;;;5093523;28;20194;-70
2023/02/27 15:33:32;;;;;;;0.43;0.43;;;0.60;78.40;;;;;;5093564;28;20175;-70
2023/02/27 15:35:59;;;;;;;0.47;0.47;;;0.70;79.30;;;;;;5093733;28;20195;-70
2023/02/27 15:38:31;;;;;;;0.40;0.40;;;0.30;79.60;;;;;;5093488;28;20193;-70
2023/02/27 15:40:58;;;;;;;0.40;0.40;;;0.40;79.20;;;;;;5093199;28;20176;-70
2023/02/27 15:43:25;;;;;;;0.30;0.30;;;0.00;78.90;;;;;;5093467;28;20197;-70
2023/02/27 15:45:52;;;;;;;0.40;0.40;;;-0.20;79.20;;;;;;5093459;28;20182;-70
2023/02/27 15:48:18;;;;;;;0.40;0.40;;;-0.40;80.60;;;;;;5093101;28;20220;-70
2023/02/27 15:50:53;;;;;;;0.40;0.40;;;-0.40;81.90;;;;;;5093193;28;20169;-70
2023/02/27 15:53:22;;;;;;;0.30;0.30;;;-0.30;82.20;;;;;;5093604;28;20191;-70
2023/02/27 15:56:00;;;;;;;0.70;0.70;;;-0.10;81.30;;;;;;5093274;28;20169;-70
2023/02/27 15:58:29;;;;;;;0.30;0.30;;;-0.40;81.10;;;;;;5093306;28;20352;-70
2023/02/27 16:01:01;;;;;;;0.30;0.30;;;-0.30;80.30;;;;;;5093223;28;20177;-70
2023/02/27 16:03:41;;;;;;;1.02;0.98;;;0.00;80.00;;;;;;5093341;28;20208;-70
2023/02/27 16:06:18;;;;;;;0.50;0.50;;;0.20;79.70;;;;;;5093373;28;20252;-70
2023/02/27 16:08:50;;;;;;;0.40;0.40;;;0.30;77.50;;;;;;5092862;28;20211;-70
2023/02/27 16:11:27;;;;;;;0.50;0.50;;;0.10;78.00;;;;;;5093436;28;20246;-70
2023/02/27 16:13:54;;;;;;;0.40;0.40;;;0.40;76.50;;;;;;5093304;28;20267;-70
2023/02/27 16:16:19;;;;;;;0.40;0.40;;;0.30;76.80;;;;;;5093135;28;20173;-70
2023/02/27 16:18:51;;;;;;;0.97;0.97;;;0.40;76.10;;;;;;5093026;28;20191;-70
2023/02/27 16:21:22;;;;;;;0.95;0.70;;;0.30;75.00;;;;;;5093070;28;20224;-70
2023/02/27 16:23:48;;;;;;;0.57;0.57;;;0.30;75.60;;;;;;5093156;28;20170;-70
2023/02/27 16:26:23;;;;;;;1.08;1.05;;;0.00;75.00;;;;;;5093097;28;20169;-69
2023/02/27 16:29:02;;;;;;;0.38;0.38;;;0.00;76.30;;;;;;5092451;28;20201;-71
2023/02/27 16:31:35;;;;;;;0.38;0.38;;;0.10;78.10;;;;;;5093108;28;20165;-70
2023/02/27 16:34:22;;;;;;;0.40;0.40;;;0.10;78.80;;;;;;5093433;28;20509;-70
2023/02/27 16:36:57;;;;;;;1.02;0.50;;;0.20;78.10;;;;;;5095656;28;20296;-70
2023/02/27 16:39:24;;;;;;;0.40;0.40;;;0.40;77.50;;;;;;5096073;28;20614;-70
2023/02/27 16:41:56;;;;;;;0.40;0.40;;;0.30;76.80;;;;;;5096751;28;20641;-70
2023/02/27 16:44:24;;;;;;;0.40;0.40;;;0.10;76.10;;;;;;5096229;28;20649;-71
2023/02/27 16:46:54;;;;;;;0.40;0.40;;;0.00;76.80;;;;;;5096066;28;20178;-71
2023/02/27 16:49:27;;;;;;;0.40;0.40;;;0.00;74.80;;;;;;5096397;28;20693;-71
2023/02/27 16:51:53;;;;;;;0.47;0.47;;;-0.20;75.30;;;;;;5094854;28;20173;-71
2023/02/27 16:54:19;;;;;;;0.67;0.60;;;-0.10;75.60;;;;;;5096758;28;20185;-71
2023/02/27 16:56:46;;;;;;;0.30;0.30;;;-0.20;75.30;;;;;;5096871;28;20438;-70
2023/02/27 16:59:33;;;;;;;0.40;0.40;;;-0.20;75.70;;;;;;5096576;28;20214;-71
2023/02/27 17:02:01;;;;;;;0.30;0.30;;;-0.40;75.90;;;;;;5096641;28;20180;-71
2023/02/27 17:04:28;;;;;;;0.30;0.30;;;-0.30;76.40;;;;;;5096303;28;20169;-71
2023/02/27 17:06:55;;;;;;;0.40;0.40;;;-0.30;76.40;;;;;;5096537;28;20184;-71
2023/02/27 17:09:21;;;;;;;0.80;0.80;;;-0.60;76.30;;;;;;5096125;28;20693;-71
2023/02/27 17:11:48;;;;;;;0.40;0.40;;;-0.70;77.80;;;;;;5096474;28;20166;-71
2023/02/27 17:14:13;;;;;;;1.15;0.88;;;-0.80;78.60;;;;;;5096682;28;20698;-71
2023/02/27 17:16:39;;;;;;;0.40;0.40;;;-0.80;79.80;;;;;;5096183;28;20174;-71
2023/02/27 17:19:05;;;;;;;0.63;0.63;;;-0.90;79.30;;;;;;5094591;28;20435;-71
2023/02/27 17:21:31;;;;;;;0.30;0.30;;;-1.00;80.90;;;;;;5096273;28;20649;-71
2023/02/27 17:23:57;;;;;;;0.30;0.30;;;-0.90;79.40;;;;;;5096391;28;20402;-71
2023/02/27 17:26:22;;;;;;;0.30;0.30;;;-0.70;78.90;;;;;;5096436;28;20178;-72
2023/02/27 17:28:48;;;;;;;0.30;0.30;;;-0.60;78.20;;;;;;5095749;28;20205;-71
2023/02/27 17:31:15;;;;;;;1.03;1.03;;;-0.60;78.00;;;;;;5095903;28;20162;-71
2023/02/27 17:33:41;;;;;;;0.40;0.40;;;-0.50;80.50;;;;;;5095995;28;20172;-71
2023/02/27 17:36:09;;;;;;;0.30;0.30;;;-0.50;77.90;;;;;;5095943;28;20169;-72
2023/02/27 17:38:36;;;;;;;0.40;0.40;;;-0.60;79.00;;;;;;5095622;28;20596;-72
2023/02/27 17:41:09;;;;;;;0.40;0.40;;;-0.60;79.70;;;;;;5095997;28;20521;-71
2023/02/27 17:43:36;;;;;;;0.40;0.40;;;-0.40;78.80;;;;;;5095744;28;20176;-72
2023/02/27 17:46:09;;;;;;;0.30;0.30;;;-0.40;79.00;;;;;;5095506;28;20261;-72
2023/02/27 17:48:37;;;;;;;1.92;1.67;;;-0.20;78.00;;;;;;5095920;28;20270;-72
2023/02/27 17:51:05;;;;;;;0.55;0.55;;;-0.30;78.00;;;;;;5095701;28;20172;-71
2023/02/27 17:53:31;;;;;;;1.75;1.48;;;-0.20;78.50;;;;;;5095965;28;20216;-71
2023/02/27 17:55:56;;;;;;;0.60;0.60;;;-0.40;78.20;;;;;;5096008;28;20511;-72
2023/02/27 17:58:22;;;;;;;0.70;0.70;;;-0.50;79.20;;;;;;5095517;28;20189;-72
2023/02/27 18:00:48;;;;;;;1.33;1.33;;;-0.20;80.30;;;;;;5095351;28;20496;-72
2023/02/27 18:03:13;;;;;;;0.40;0.40;;;-0.20;78.30;;;;;;5095546;28;20536;-70
2023/02/27 18:05:45;;;;;;;0.40;0.40;;;-0.20;78.20;;;;;;5095719;28;20399;-72
2023/02/27 18:08:11;;;;;;;0.38;0.38;;;-0.30;79.30;;;;;;5095131;28;20200;-71
2023/02/27 18:10:37;;;;;;;0.50;0.50;;;-0.40;78.30;;;;;;5095046;28;20174;-72
2023/02/27 18:13:02;;;;;;;1.13;1.13;;;-0.50;79.20;;;;;;5095179;28;20166;-72
2023/02/27 18:15:28;;;;;;;1.57;1.53;;;-0.70;79.50;;;;;;5095215;28;20241;-72
2023/02/27 18:17:54;;;;;;;0.50;0.50;;;-0.60;81.00;;;;;;5094876;28;20727;-71
2023/02/27 18:20:19;;;;;;;0.30;0.30;;;-0.70;81.30;;;;;;5094812;28;20161;-72
2023/02/27 18:22:45;;;;;;;0.40;0.30;;;-0.50;82.20;;;;;;5094193;28;20630;-72
2023/02/27 18:25:11;;;;;;;0.40;0.40;;;-0.40;81.20;;;;;;5093659;28;20173;-72
2023/02/27 18:27:36;;;;;;;0.40;0.40;;;-0.20;81.20;;;;;;5094962;28;20269;-72
2023/02/27 18:30:02;;;;;;;0.50;0.50;;;-0.30;80.70;;;;;;5094727;28;20169;-69
2023/02/27 18:32:28;;;;;;;0.30;0.30;;;-0.20;81.50;;;;;;5094969;28;20554;-70
2023/02/27 18:34:53;;;;;;;0.30;0.30;;;-0.20;82.40;;;;;;5094670;28;20760;-70
2023/02/27 18:37:19;;;;;;;0.40;0.40;;;-0.20;82.70;;;;;;5094687;28;20169;-70
2023/02/27 18:39:44;;;;;;;0.47;0.47;;;-0.20;81.80;;;;;;5094127;28;20185;-70
2023/02/27 18:42:10;;;;;;;0.60;0.60;;;;;;;;;;5094396;28;20168;-70
2023/02/27 18:44:39;;;;;;;0.50;0.50;;;-0.60;99.90;;;;;;5094452;28;20259;-70
2023/02/27 18:47:05;;;;;;;0.30;0.30;;;;;;;;;;5094077;28;20171;-70
2023/02/27 18:49:31;;;;;;;0.30;0.30;;;-1.10;98.60;;;;;;5093957;28;20546;-70
2023/02/27 18:51:57;;;;;;;0.47;0.47;;;-0.90;86.70;;;;;;5094418;28;20173;-70
2023/02/27 18:54:22;;;;;;;0.50;0.50;;;-0.90;87.80;;;;;;5094305;28;20166;-70
2023/02/27 18:56:50;;;;;;;0.50;0.47;;;-0.60;87.00;;;;;;5093551;28;20170;-70
2023/02/27 18:59:16;;;;;;;0.30;0.30;;;-0.50;85.80;;;;;;5093685;28;20550;-70
2023/02/27 19:01:41;;;;;;;0.40;0.40;;;-0.50;86.20;;;;;;5094061;28;20226;-70
2023/02/27 19:04:08;;;;;;;4.00;0.80;;;-0.70;85.90;;;;;;5094125;28;20220;-70
2023/02/27 19:06:41;;;;;;;0.40;0.40;;;-0.90;86.10;;;;;;5093851;28;20166;-70
2023/02/27 19:09:10;;;;;;;0.40;0.40;;;-1.00;86.50;;;;;;5093603;28;20700;-70
2023/02/27 19:11:36;;;;;;;0.60;0.50;;;-0.90;86.10;;;;;;5093885;28;20218;-70
2023/02/27 19:14:04;;;;;;;0.40;0.40;;;-0.80;86.60;;;;;;5093750;28;20169;-70
2023/02/27 19:16:30;;;;;;;0.40;0.40;;;-0.90;86.60;;;;;;5093900;28;20218;-70
2023/02/27 19:19:00;;;;;;;0.30;0.30;;;-1.00;86.00;;;;;;5093422;28;20199;-70
2023/02/27 19:21:27;;;;;;;0.88;0.60;;;-1.10;86.40;;;;;;5093840;28;20173;-70
2023/02/27 19:23:53;;;;;;;0.50;0.50;;;-1.20;86.30;;;;;;5093678;28;20548;-70
2023/02/27 19:26:19;;;;;;;0.50;0.50;;;-1.00;86.90;;;;;;5093698;28;20169;-70
2023/02/27 19:28:45;;;;;;;0.30;0.30;;;-1.10;87.60;;;;;;5093300;28;20239;-70
2023/02/27 19:31:13;;;;;;;0.30;0.30;;;-1.00;88.30;;;;;;5093720;28;20250;-70
2023/02/27 19:33:39;;;;;;;0.40;0.40;;;-1.00;88.30;;;;;;5093752;28;20165;-70
2023/02/27 19:36:10;;;;;;;0.50;0.50;;;-1.00;87.40;;;;;;5093416;28;20202;-70
2023/02/27 19:38:36;;;;;;;0.70;0.70;;;-1.10;87.50;;;;;;5093532;28;20192;-70
2023/02/27 19:41:03;;;;;;;0.37;0.37;;;-1.10;88.80;;;;;;5093092;28;20170;-70
2023/02/27 19:43:30;;;;;;;0.60;0.60;;;-1.10;89.90;;;;;;5093552;28;20741;-70
2023/02/27 19:45:56;;;;;;;0.40;0.40;;;-1.00;89.70;;;;;;5093446;28;20173;-70
2023/02/27 19:48:22;;;;;;;0.50;0.50;;;-1.00;90.00;;;;;;5093052;28;20213;-70
2023/02/27 19:50:48;;;;;;;0.40;0.40;;;-0.90;89.80;;;;;;5092609;28;20252;-70
2023/02/27 19:53:13;;;;;;;0.37;0.37;;;-0.90;88.90;;;;;;5092757;28;20241;-70
2023/02/27 19:55:39;;;;;;;0.40;0.40;;;-1.00;88.80;;;;;;5092763;28;20186;-70
2023/02/27 19:58:05;;;;;;;1.23;1.23;;;-1.10;89.50;;;;;;5093151;28;20789;-70
2023/02/27 20:00:31;;;;;;;0.30;0.30;;;-1.10;89.70;;;;;;5093209;28;20579;-70
2023/02/27 20:02:56;;;;;;;1.13;1.13;;;-1.10;90.00;;;;;;5093323;28;20627;-70
2023/02/27 20:05:23;;;;;;;0.50;0.50;;;-1.30;89.30;;;;;;5093457;28;20905;-70
2023/02/27 20:07:49;;;;;;;0.40;0.40;;;-1.40;90.10;;;;;;5092943;28;20192;-71
2023/02/27 20:10:15;;;;;;;2.72;1.27;;;-1.30;90.20;;;;;;5095465;28;20175;-70
2023/02/27 20:12:41;;;;;;;0.30;0.30;;;-1.10;90.30;;;;;;5097333;28;20233;-70
2023/02/27 20:15:10;;;;;;;0.40;0.40;;;-1.00;90.40;;;;;;5097031;28;20165;-70
2023/02/27 20:17:37;;;;;;;0.30;0.30;;;-1.10;89.90;;;;;;5096965;28;20407;-70
2023/02/27 20:20:04;;;;;;;0.40;0.40;;;-1.60;89.30;;;;;;5096753;28;20226;-70
2023/02/27 20:22:31;;;;;;;1.40;1.30;;;-1.70;90.50;;;;;;5097030;28;20165;-70
2023/02/27 20:24:58;;;;;;;0.40;0.40;;;-1.60;90.60;;;;;;5097170;28;20218;-70
2023/02/27 20:27:24;;;;;;;1.73;0.70;;;-1.60;90.90;;;;;;5096849;28;20599;-71
2023/02/27 20:29:55;;;;;;;0.52;0.52;;;-1.60;90.80;;;;;;5096805;28;20196;-71
2023/02/27 20:32:22;;;;;;;0.40;0.40;;;-1.60;91.10;;;;;;5097319;28;20168;-70
2023/02/27 20:34:49;;;;;;;0.30;0.30;;;-1.60;91.20;;;;;;5096993;28;20198;-70
2023/02/27 20:37:15;;;;;;;0.75;0.65;;;-1.70;91.30;;;;;;5096829;28;20259;-71
2023/02/27 20:39:43;;;;;;;1.00;1.00;;;-1.80;91.00;;;;;;5096468;28;20660;-71
2023/02/27 20:42:10;;;;;;;0.40;0.40;;;-1.80;90.80;;;;;;5096742;28;20234;-70
2023/02/27 20:44:35;;;;;;;0.50;0.50;;;-2.10;91.00;;;;;;5096702;28;20172;-71
2023/02/27 20:47:01;;;;;;;0.40;0.40;;;-2.10;91.50;;;;;;5096361;28;20173;-71
2023/02/27 20:49:27;;;;;;;0.40;0.40;;;-1.90;91.40;;;;;;5096344;28;20200;-70
2023/02/27 20:51:53;;;;;;;0.50;0.50;;;-1.80;90.90;;;;;;5096765;28;20262;-71
2023/02/27 20:54:19;;;;;;;0.40;0.40;;;-1.80;90.60;;;;;;5096735;28;20173;-71
2023/02/27 20:56:45;;;;;;;0.40;0.40;;;-1.60;90.50;;;;;;5096375;28;20532;-71
2023/02/27 20:59:14;;;;;;;0.40;0.40;;;-1.60;90.50;;;;;;5096101;28;20192;-71
2023/02/27 21:01:41;;;;;;;0.50;0.50;;;-1.40;90.60;;;;;;5096330;28;20588;-71
2023/02/27 21:04:07;;;;;;;0.40;0.40;;;-1.40;90.00;;;;;;5096259;28;20252;-71
2023/02/27 21:06:33;;;;;;;0.50;0.50;;;-1.60;88.90;;;;;;5096324;28;20631;-71
2023/02/27 21:09:02;;;;;;;1.45;1.25;;;-1.60;89.70;;;;;;5095872;28;20458;-71
2023/02/27 21:11:29;;;;;;;0.50;0.50;;;-1.60;89.80;;;;;;5095788;28;20641;-71
2023/02/27 21:13:57;;;;;;;1.02;1.02;;;-1.70;89.70;;;;;;5095953;28;20191;-70
2023/02/27 21:16:24;;;;;;;0.40;0.40;;;-1.70;90.30;;;;;;5096167;28;20239;-71
2023/02/27 21:18:50;;;;;;;0.60;0.60;;;-1.70;90.50;;;;;;5095880;28;20243;-71
2023/02/27 21:21:24;;;;;;;0.57;0.57;;;-1.80;90.60;;;;;;5095447;28;20558;-71
2023/02/27 21:23:50;;;;;;;0.60;0.60;;;-1.70;90.50;;;;;;5095902;28;20161;-70
2023/02/27 21:26:23;;;;;;;0.40;0.40;;;-2.20;90.30;;;;;;5094214;28;20173;-71
2023/02/27 21:28:53;;;;;;;0.40;0.40;;;-2.30;90.80;;;;;;5093945;28;20211;-71
2023/02/27 21:31:20;;;;;;;0.60;0.60;;;-2.40;91.20;;;;;;5095012;28;20169;-71
2023/02/27 21:33:47;;;;;;;0.30;0.30;;;-2.10;91.20;;;;;;5094994;28;20165;-71
2023/02/27 21:36:13;;;;;;;0.93;0.93;;;-2.10;91.00;;;;;;5094863;28;20181;-71
2023/02/27 21:38:39;;;;;;;0.50;0.50;;;-2.10;91.10;;;;;;5094737;28;20243;-71
2023/02/27 21:41:10;;;;;;;0.50;0.50;;;-2.10;90.80;;;;;;5094777;28;20169;-71
2023/02/27 21:43:36;;;;;;;0.30;0.30;;;-2.20;91.10;;;;;;5095523;28;20235;-70
2023/02/27 21:46:09;;;;;;;0.97;0.97;;;-2.10;91.20;;;;;;5095466;28;20173;-71
2023/02/27 21:48:35;;;;;;;0.50;0.50;;;-2.10;90.60;;;;;;5095043;28;20204;-71
2023/02/27 21:51:02;;;;;;;0.40;0.40;;;-2.20;90.70;;;;;;5095318;28;20169;-71
2023/02/27 21:53:28;;;;;;;0.93;0.93;;;-2.30;90.90;;;;;;5095496;28;20241;-70
2023/02/27 21:55:54;;;;;;;0.40;0.40;;;-2.40;90.80;;;;;;5095181;28;20587;-71
2023/02/27 21:58:21;;;;;;;0.75;0.75;;;-2.40;91.60;;;;;;5095198;28;20271;-71
2023/02/27 22:00:47;;;;;;;3.03;2.90;;;-2.30;91.40;;;;;;5095119;28;20192;-71
2023/02/27 22:03:13;;;;;;;0.55;0.55;;;-2.20;90.90;;;;;;5095298;28;20169;-71
2023/02/27 22:05:42;;;;;;;0.60;0.60;;;-2.00;90.80;;;;;;5095270;28;20181;-71
2023/02/27 22:08:08;;;;;;;1.50;1.40;;;-2.10;91.00;;;;;;5095083;28;20224;-70
2023/02/27 22:10:41;;;;;;;1.05;1.05;;;-2.00;90.90;;;;;;5094829;28;20172;-71
2023/02/27 22:13:07;;;;;;;0.50;0.50;;;-2.10;91.40;;;;;;5095043;28;20244;-71
2023/02/27 22:15:35;;;;;;;0.47;0.47;;;-2.00;91.10;;;;;;5094843;28;20706;-71
2023/02/27 22:18:00;;;;;;;0.40;0.40;;;-2.10;91.40;;;;;;5094925;28;20292;-71
2023/02/27 22:20:26;;;;;;;0.30;0.30;;;-2.40;91.20;;;;;;5094604;28;20201;-70
2023/02/27 22:22:52;;;;;;;0.30;0.30;;;-2.40;91.60;;;;;;5095203;28;20241;-71
2023/02/27 22:25:17;;;;;;;1.70;0.83;;;-2.30;91.60;;;;;;5094791;28;20165;-70
2023/02/27 22:27:43;;;;;;;0.67;0.67;;;-2.20;91.50;;;;;;5094562;28;20587;-71
2023/02/27 22:30:10;;;;;;;0.40;0.40;;;-2.20;91.20;;;;;;5094612;28;20172;-71
2023/02/27 22:32:38;;;;;;;0.40;0.40;;;-2.00;91.30;;;;;;5093889;28;20776;-70
2023/02/27 22:35:04;;;;;;;0.30;0.30;;;-2.10;91.40;;;;;;5094612;28;20187;-70
2023/02/27 22:37:29;;;;;;;0.65;0.65;;;-2.10;91.00;;;;;;5094419;28;20203;-71
2023/02/27 22:39:55;;;;;;;0.40;0.40;;;-2.00;91.10;;;;;;5094296;28;20634;-71
2023/02/27 22:42:21;;;;;;;1.27;1.27;;;-2.00;91.00;;;;;;5094457;28;20168;-71
2023/02/27 22:44:46;;;;;;;0.40;0.40;;;-1.80;91.30;;;;;;5094318;28;20197;-71
2023/02/27 22:47:12;;;;;;;0.73;0.73;;;-1.70;90.90;;;;;;5094320;28;20355;-71
2023/02/27 22:49:38;;;;;;;0.73;0.73;;;-1.70;90.90;;;;;;5094049;28;20295;-70
2023/02/27 22:52:04;;;;;;;0.60;0.60;;;-1.80;90.40;;;;;;5094216;28;20621;-70
2023/02/27 22:54:29;;;;;;;0.38;0.38;;;-1.90;90.70;;;;;;5094545;28;20543;-70
2023/02/27 22:56:55;;;;;;;0.40;0.40;;;-1.70;90.50;;;;;;5094329;28;20172;-71
2023/02/27 22:59:21;;;;;;;0.53;0.53;;;-1.80;90.80;;;;;;5093926;28;20657;-70
2023/02/27 23:01:48;;;;;;;0.50;0.50;;;-2.00;91.00;;;;;;5094254;28;20406;-71
2023/02/27 23:04:15;;;;;;;1.48;1.48;;;-2.00;91.70;;;;;;5093989;28;20169;-70
2023/02/27 23:06:41;;;;;;;0.40;0.40;;;-1.90;91.10;;;;;;5094385;28;20188;-71
2023/02/27 23:09:12;;;;;;;2.25;1.33;;;-1.70;91.40;;;;;;5093553;28;20208;-71
2023/02/27 23:11:37;;;;;;;0.40;0.40;;;-1.70;91.20;;;;;;5094111;28;20165;-70
2023/02/27 23:14:03;;;;;;;0.40;0.40;;;-1.70;90.90;;;;;;5093801;28;20571;-70
2023/02/27 23:16:29;;;;;;;0.50;0.50;;;-1.80;91.20;;;;;;5093977;28;20169;-71
2023/02/27 23:18:56;;;;;;;0.70;0.70;;;-1.80;91.00;;;;;;5093458;28;20189;-70
2023/02/27 23:21:30;;;;;;;0.30;0.30;;;-1.80;90.90;;;;;;5093960;28;20169;-70
2023/02/27 23:23:58;;;;;;;0.75;0.75;;;-1.80;91.10;;;;;;5093949;28;20613;-70
2023/02/27 23:26:27;;;;;;;0.50;0.50;;;-1.80;90.90;;;;;;5093719;28;20176;-70
2023/02/27 23:28:53;;;;;;;0.30;0.30;;;-2.00;91.00;;;;;;5093269;28;20235;-70
2023/02/27 23:31:19;;;;;;;0.50;0.50;;;-1.80;91.40;;;;;;5093715;28;20160;-70
2023/02/27 23:33:44;;;;;;;0.30;0.30;;;-1.80;91.40;;;;;;5093526;28;20177;-71
2023/02/27 23:36:10;;;;;;;0.60;0.57;;;-1.70;91.10;;;;;;5093522;28;20395;-70
2023/02/27 23:38:36;;;;;;;0.30;0.30;;;-1.50;91.20;;;;;;5093436;28;20241;-70
2023/02/27 23:41:08;;;;;;;1.97;0.90;;;-1.50;90.90;;;;;;5093394;28;20409;-70
2023/02/27 23:43:35;;;;;;;0.82;0.82;;;-1.50;91.00;;;;;;5093355;28;20403;-70
2023/02/27 23:46:09;;;;;;;0.40;0.40;;;-1.60;91.00;;;;;;5092262;28;20664;-70
2023/02/27 23:48:35;;;;;;;0.77;0.68;;;-1.50;91.60;;;;;;5093073;28;20243;-71
2023/02/27 23:51:02;;;;;;;0.40;0.40;;;-1.40;91.50;;;;;;5093224;28;20177;-70
2023/02/27 23:53:29;;;;;;;0.50;0.50;;;-1.50;91.30;;;;;;5093441;28;20572;-70
2023/02/27 23:55:54;;;;;;;0.40;0.40;;;-1.50;91.00;;;;;;5093430;28;20537;-70
2023/02/27 23:58:20;;;;;;;10.47;1.37;;;-1.70;91.10;;;;;;5093175;28;20203;-70
